createdAt,value
2018-09-22T00:00:56.829Z,13.23
2018-09-22T00:03:24.100Z,13.20
2018-09-22T00:05:51.436Z,13.22
2018-09-22T00:08:18.655Z,13.22
2018-09-22T00:10:46.014Z,13.22
2018-09-22T00:13:13.270Z,13.21
2018-09-22T00:15:40.500Z,13.21
2018-09-22T00:18:07.732Z,13.16
2018-09-22T00:20:35.021Z,13.19
2018-09-22T00:23:02.200Z,13.18
2018-09-22T00:25:29.517Z,13.15
2018-09-22T00:27:56.736Z,13.13
2018-09-22T00:30:24.008Z,13.15
2018-09-22T00:32:51.233Z,13.09
2018-09-22T00:35:18.495Z,13.03
2018-09-22T00:37:45.727Z,13.07
2018-09-22T00:40:12.987Z,13.04
2018-09-22T00:42:40.195Z,13.02
2018-09-22T00:45:07.598Z,12.94
2018-09-22T00:47:34.861Z,12.98
2018-09-22T00:50:02.197Z,12.98
2018-09-22T00:52:29.463Z,12.97
2018-09-22T00:54:56.778Z,12.98
2018-09-22T00:57:24.132Z,12.92
2018-09-22T00:59:51.414Z,12.89
2018-09-22T01:02:18.783Z,12.88
2018-09-22T01:04:46.166Z,12.87
2018-09-22T01:07:13.515Z,12.84
2018-09-22T01:09:40.855Z,12.88
2018-09-22T01:12:08.172Z,12.85
2018-09-22T01:14:35.498Z,12.83
2018-09-22T01:17:02.820Z,12.83
2018-09-22T01:19:30.085Z,12.86
2018-09-22T01:21:57.394Z,12.84
2018-09-22T01:24:24.676Z,12.83
2018-09-22T01:26:51.954Z,12.79
2018-09-22T01:29:19.212Z,12.74
2018-09-22T01:31:46.562Z,12.78
2018-09-22T01:34:13.896Z,12.78
2018-09-22T01:36:41.800Z,12.66
2018-09-22T01:39:10.226Z,12.70
2018-09-22T01:41:37.713Z,12.78
2018-09-22T01:44:05.334Z,12.84
2018-09-22T01:46:32.671Z,12.82
2018-09-22T01:49:00.033Z,12.88
2018-09-22T01:51:27.268Z,12.92
2018-09-22T01:53:54.559Z,12.88
2018-09-22T01:56:21.904Z,12.94
2018-09-22T01:58:49.221Z,12.96
2018-09-22T02:01:16.563Z,12.90
2018-09-22T02:03:43.832Z,12.89
2018-09-22T02:06:11.107Z,12.93
2018-09-22T02:08:38.505Z,12.89
2018-09-22T02:11:05.892Z,12.89
2018-09-22T02:13:33.206Z,12.92
2018-09-22T02:16:00.515Z,13.03
2018-09-22T02:18:27.835Z,12.96
2018-09-22T02:20:55.120Z,12.88
2018-09-22T02:23:22.476Z,12.86
2018-09-22T02:25:49.791Z,12.69
2018-09-22T02:28:17.094Z,12.90
2018-09-22T02:30:44.351Z,12.85
2018-09-22T02:33:11.667Z,12.85
2018-09-22T02:35:38.988Z,12.86
2018-09-22T02:38:06.289Z,12.88
2018-09-22T02:40:43.705Z,12.75
2018-09-22T02:43:10.988Z,12.68
2018-09-22T02:45:38.341Z,12.58
2018-09-22T02:48:05.644Z,12.49
2018-09-22T02:50:32.944Z,12.49
2018-09-22T02:53:00.243Z,12.35
2018-09-22T02:55:27.562Z,12.37
2018-09-22T02:57:54.807Z,12.23
2018-09-22T03:00:22.105Z,12.15
2018-09-22T03:02:49.513Z,12.14
2018-09-22T03:05:16.785Z,12.12
2018-09-22T03:07:44.044Z,12.17
2018-09-22T03:10:11.706Z,12.14
2018-09-22T03:12:38.601Z,12.12
2018-09-22T03:15:06.280Z,12.08
2018-09-22T03:17:33.571Z,12.07
2018-09-22T03:20:00.825Z,12.08
2018-09-22T03:22:28.107Z,12.16
2018-09-22T03:24:55.556Z,12.19
2018-09-22T03:27:22.881Z,12.10
2018-09-22T03:29:50.166Z,12.16
2018-09-22T03:32:17.436Z,12.09
2018-09-22T03:34:44.727Z,12.09
2018-09-22T03:40:04.698Z,12.14
2018-09-22T03:42:32.019Z,12.14
2018-09-22T03:44:59.369Z,12.13
2018-09-22T03:47:26.639Z,11.94
2018-09-22T03:49:53.918Z,11.92
2018-09-22T03:52:21.212Z,11.87
2018-09-22T03:54:48.461Z,11.84
2018-09-22T03:57:15.828Z,11.85
2018-09-22T03:59:43.100Z,11.88
2018-09-22T04:02:10.358Z,11.87
2018-09-22T04:04:37.623Z,11.86
2018-09-22T04:07:04.833Z,11.89
2018-09-22T04:09:32.123Z,11.79
2018-09-22T04:11:59.363Z,11.87
2018-09-22T04:14:26.765Z,11.89
2018-09-22T04:16:54.030Z,11.93
2018-09-22T04:19:21.339Z,11.89
2018-09-22T04:21:48.591Z,11.95
2018-09-22T04:24:17.306Z,11.93
2018-09-22T04:26:45.056Z,12.04
2018-09-22T04:29:12.381Z,12.07
2018-09-22T04:31:39.702Z,12.05
2018-09-22T04:34:07.016Z,12.02
2018-09-22T04:36:34.267Z,11.97
2018-09-22T04:39:01.621Z,11.94
2018-09-22T04:41:28.922Z,11.94
2018-09-22T04:43:56.409Z,11.93
2018-09-22T04:46:23.632Z,11.90
2018-09-22T04:48:50.851Z,11.94
2018-09-22T04:51:18.134Z,12.03
2018-09-22T04:53:45.412Z,12.03
2018-09-22T04:56:12.645Z,11.97
2018-09-22T04:58:39.852Z,11.95
2018-09-22T05:01:07.064Z,11.90
2018-09-22T05:03:34.267Z,11.90
2018-09-22T05:06:01.602Z,11.79
2018-09-22T05:08:28.921Z,11.74
2018-09-22T05:10:56.191Z,11.73
2018-09-22T05:13:23.634Z,11.69
2018-09-22T05:15:51.492Z,11.56
2018-09-22T05:18:18.779Z,11.58
2018-09-22T05:20:46.032Z,11.49
2018-09-22T05:23:13.262Z,11.41
2018-09-22T05:25:40.529Z,11.43
2018-09-22T05:28:07.853Z,11.45
2018-09-22T05:30:35.246Z,11.35
2018-09-22T05:33:02.551Z,11.31
2018-09-22T05:35:29.870Z,11.26
2018-09-22T05:37:57.098Z,11.29
2018-09-22T05:40:24.409Z,11.29
2018-09-22T05:42:51.604Z,11.28
2018-09-22T05:45:18.865Z,11.38
2018-09-22T05:47:46.265Z,11.49
2018-09-22T05:50:13.558Z,11.52
2018-09-22T05:52:40.817Z,11.58
2018-09-22T05:55:08.157Z,11.62
2018-09-22T05:57:35.374Z,11.72
2018-09-22T06:00:02.779Z,11.90
2018-09-22T06:02:30.008Z,11.95
2018-09-22T06:04:57.365Z,11.89
2018-09-22T06:07:24.637Z,11.95
2018-09-22T06:09:51.887Z,12.02
2018-09-22T06:12:19.144Z,12.12
2018-09-22T06:14:46.402Z,12.19
2018-09-22T06:17:13.676Z,12.15
2018-09-22T06:19:40.922Z,12.24
2018-09-22T06:22:08.206Z,12.34
2018-09-22T06:24:35.533Z,12.40
2018-09-22T06:27:02.740Z,12.30
2018-09-22T06:29:29.992Z,12.36
2018-09-22T06:31:57.248Z,12.40
2018-09-22T06:34:24.498Z,12.50
2018-09-22T06:36:51.738Z,12.56
2018-09-22T06:39:19.016Z,12.43
2018-09-22T06:41:46.214Z,12.67
2018-09-22T06:44:13.497Z,12.76
2018-09-22T06:46:40.747Z,12.95
2018-09-22T06:49:07.984Z,13.02
2018-09-22T06:51:35.221Z,13.10
2018-09-22T06:54:02.507Z,13.15
2018-09-22T06:56:29.782Z,13.32
2018-09-22T06:58:56.994Z,13.57
2018-09-22T07:01:24.262Z,13.76
2018-09-22T07:03:51.532Z,13.83
2018-09-22T07:06:18.899Z,13.99
2018-09-22T07:08:46.217Z,14.14
2018-09-22T07:11:13.517Z,13.97
2018-09-22T07:13:40.836Z,13.84
2018-09-22T07:16:08.255Z,13.80
2018-09-22T07:18:35.570Z,13.84
2018-09-22T07:21:06.716Z,13.62
2018-09-22T07:23:34.015Z,13.55
2018-09-22T07:26:01.339Z,13.59
2018-09-22T07:28:28.660Z,13.61
2018-09-22T07:30:55.964Z,13.68
2018-09-22T07:33:23.406Z,13.66
2018-09-22T07:35:50.681Z,13.83
2018-09-22T07:38:18.096Z,13.86
2018-09-22T07:40:45.409Z,13.79
2018-09-22T07:43:12.751Z,13.96
2018-09-22T07:45:40.085Z,14.09
2018-09-22T07:48:07.316Z,14.38
2018-09-22T07:50:34.661Z,14.57
2018-09-22T07:53:01.913Z,14.85
2018-09-22T07:55:29.162Z,15.25
2018-09-22T07:57:56.492Z,15.60
2018-09-22T08:00:23.809Z,15.50
2018-09-22T08:02:51.018Z,15.30
2018-09-22T08:05:18.325Z,15.62
2018-09-22T08:07:45.553Z,15.89
2018-09-22T08:10:12.825Z,16.16
2018-09-22T08:12:40.110Z,16.40
2018-09-22T08:15:07.302Z,16.14
2018-09-22T08:17:34.605Z,16.12
2018-09-22T08:20:01.993Z,16.58
2018-09-22T08:22:29.274Z,17.16
2018-09-22T08:24:56.498Z,17.62
2018-09-22T08:27:23.771Z,17.24
2018-09-22T08:29:51.026Z,16.79
2018-09-22T08:32:18.301Z,16.90
2018-09-22T08:34:45.742Z,16.87
2018-09-22T08:37:13.021Z,16.54
2018-09-22T08:39:40.303Z,16.25
2018-09-22T08:42:07.795Z,16.03
2018-09-22T08:44:35.090Z,15.95
2018-09-22T08:47:02.416Z,15.97
2018-09-22T08:49:29.790Z,15.67
2018-09-22T08:51:57.550Z,15.76
2018-09-22T08:54:24.879Z,15.99
2018-09-22T08:56:52.177Z,16.15
2018-09-22T08:59:19.487Z,16.15
2018-09-22T09:01:46.685Z,15.95
2018-09-22T09:04:13.942Z,15.86
2018-09-22T09:06:41.344Z,15.89
2018-09-22T09:09:09.523Z,16.02
2018-09-22T09:11:36.925Z,16.65
2018-09-22T09:14:04.253Z,16.81
2018-09-22T09:16:31.519Z,17.04
2018-09-22T09:18:58.857Z,16.86
2018-09-22T09:21:26.158Z,16.68
2018-09-22T09:23:53.422Z,16.60
2018-09-22T09:26:21.449Z,16.47
2018-09-22T09:28:48.823Z,16.56
2018-09-22T09:31:17.342Z,16.74
2018-09-22T09:33:44.588Z,16.74
2018-09-22T09:36:11.961Z,16.59
2018-09-22T09:38:39.241Z,16.96
2018-09-22T09:41:06.830Z,16.93
2018-09-22T09:43:34.139Z,16.87
2018-09-22T09:46:01.370Z,17.04
2018-09-22T09:48:28.731Z,16.89
2018-09-22T09:50:56.168Z,16.52
2018-09-22T09:53:23.514Z,16.79
2018-09-22T09:55:50.731Z,16.47
2018-09-22T09:58:18.016Z,16.41
2018-09-22T10:00:46.168Z,16.30
2018-09-22T10:03:14.879Z,16.27
2018-09-22T10:05:42.442Z,16.75
2018-09-22T10:08:09.703Z,17.27
2018-09-22T10:10:36.941Z,18.14
2018-09-22T10:13:04.245Z,18.96
2018-09-22T10:15:31.510Z,20.07
2018-09-22T10:17:58.773Z,20.51
2018-09-22T10:20:26.072Z,20.16
2018-09-22T10:22:53.339Z,20.49
2018-09-22T10:25:20.627Z,20.43
2018-09-22T10:27:47.919Z,20.30
2018-09-22T10:30:15.224Z,20.10
2018-09-22T10:32:42.872Z,20.10
2018-09-22T10:35:10.195Z,20.13
2018-09-22T10:37:37.467Z,20.59
2018-09-22T10:40:05.224Z,20.72
2018-09-22T10:42:32.526Z,20.27
2018-09-22T10:44:59.783Z,19.30
2018-09-22T10:47:27.179Z,18.58
2018-09-22T10:49:54.472Z,19.79
2018-09-22T10:52:21.744Z,20.40
2018-09-22T10:54:49.257Z,19.56
2018-09-22T10:57:48.218Z,19.04
2018-09-22T11:00:15.462Z,19.13
2018-09-22T11:02:42.815Z,18.56
2018-09-22T11:05:10.329Z,18.31
2018-09-22T11:07:37.637Z,17.83
2018-09-22T11:10:06.138Z,17.98
2018-09-22T11:12:33.401Z,18.72
2018-09-22T11:15:00.704Z,19.29
2018-09-22T11:17:27.949Z,20.28
2018-09-22T11:19:55.317Z,21.04
2018-09-22T11:22:24.681Z,21.61
2018-09-22T11:24:51.960Z,21.86
2018-09-22T11:27:19.223Z,21.59
2018-09-22T11:29:46.663Z,20.57
2018-09-22T11:32:13.909Z,20.61
2018-09-22T11:34:41.170Z,21.02
2018-09-22T11:37:08.456Z,21.52
2018-09-22T11:39:36.029Z,20.40
2018-09-22T11:42:03.495Z,21.41
2018-09-22T11:44:30.816Z,22.12
2018-09-22T11:46:58.059Z,21.86
2018-09-22T11:49:25.557Z,21.64
2018-09-22T11:51:52.799Z,20.97
2018-09-22T11:54:20.116Z,21.10
2018-09-22T11:56:47.432Z,20.66
2018-09-22T11:59:14.840Z,20.13
2018-09-22T12:01:42.266Z,20.13
2018-09-22T12:04:09.553Z,20.08
2018-09-22T12:06:36.957Z,19.68
2018-09-22T12:09:06.925Z,19.77
2018-09-22T12:11:34.280Z,19.77
2018-09-22T12:14:01.596Z,20.16
2018-09-22T12:16:28.991Z,20.35
2018-09-22T12:18:56.296Z,20.61
2018-09-22T12:21:23.735Z,20.03
2018-09-22T12:23:50.957Z,19.39
2018-09-22T12:26:18.320Z,19.10
2018-09-22T12:28:45.575Z,19.12
2018-09-22T12:31:12.829Z,19.63
2018-09-22T12:33:40.138Z,20.08
2018-09-22T12:36:07.748Z,20.72
2018-09-22T12:38:34.947Z,20.89
2018-09-22T12:41:02.265Z,20.94
2018-09-22T12:43:29.471Z,20.85
2018-09-22T12:45:56.709Z,20.35
2018-09-22T12:48:24.154Z,19.88
2018-09-22T12:50:51.459Z,19.82
2018-09-22T12:53:18.699Z,20.12
2018-09-22T12:55:46.013Z,20.18
2018-09-22T12:58:13.259Z,20.06
2018-09-22T13:00:40.653Z,20.31
2018-09-22T13:03:09.517Z,20.23
2018-09-22T13:05:37.616Z,20.67
2018-09-22T13:08:05.249Z,21.13
2018-09-22T13:10:32.454Z,21.67
2018-09-22T13:12:59.684Z,22.21
2018-09-22T13:15:26.958Z,22.44
2018-09-22T13:17:54.247Z,22.67
2018-09-22T13:20:22.858Z,23.05
2018-09-22T13:22:50.576Z,22.79
2018-09-22T13:25:18.436Z,22.97
2018-09-22T13:27:45.823Z,23.46
2018-09-22T13:30:13.062Z,23.70
2018-09-22T13:32:40.314Z,23.81
2018-09-22T13:35:07.596Z,23.60
2018-09-22T13:37:34.878Z,23.25
2018-09-22T13:40:02.205Z,23.52
2018-09-22T13:42:29.475Z,23.78
2018-09-22T13:44:56.759Z,23.96
2018-09-22T13:47:24.071Z,24.24
2018-09-22T13:49:51.356Z,23.84
2018-09-22T13:52:18.608Z,23.73
2018-09-22T13:54:45.875Z,23.21
2018-09-22T13:57:13.064Z,22.94
2018-09-22T13:59:40.513Z,23.33
2018-09-22T14:02:07.758Z,23.42
2018-09-22T14:04:35.179Z,23.62
2018-09-22T14:07:02.455Z,23.64
2018-09-22T14:09:29.848Z,23.47
2018-09-22T14:11:57.237Z,22.72
2018-09-22T14:14:24.575Z,22.13
2018-09-22T14:16:51.831Z,21.61
2018-09-22T14:19:19.107Z,21.03
2018-09-22T14:21:46.372Z,20.84
2018-09-22T14:24:13.718Z,20.98
2018-09-22T14:26:41.004Z,21.16
2018-09-22T14:29:08.319Z,21.30
2018-09-22T14:31:35.663Z,21.26
2018-09-22T14:34:02.885Z,20.76
2018-09-22T14:36:30.208Z,20.54
2018-09-22T14:38:57.425Z,20.54
2018-09-22T14:41:24.704Z,20.65
2018-09-22T14:43:52.021Z,20.76
2018-09-22T14:46:19.292Z,20.40
2018-09-22T14:48:46.941Z,20.04
2018-09-22T14:51:14.219Z,20.16
2018-09-22T14:53:41.509Z,20.05
2018-09-22T14:56:08.774Z,19.87
2018-09-22T14:58:36.096Z,19.73
2018-09-22T15:01:03.356Z,19.56
2018-09-22T15:03:30.645Z,19.48
2018-09-22T15:05:57.945Z,19.62
2018-09-22T15:08:25.244Z,19.76
2018-09-22T15:10:52.557Z,19.82
2018-09-22T15:13:19.775Z,19.76
2018-09-22T15:15:47.082Z,19.77
2018-09-22T15:18:14.439Z,19.59
2018-09-22T15:20:41.826Z,19.33
2018-09-22T15:23:09.109Z,19.23
2018-09-22T15:25:36.423Z,19.18
2018-09-22T15:28:03.779Z,19.11
2018-09-22T15:30:31.188Z,19.05
2018-09-22T15:32:58.404Z,18.95
2018-09-22T15:35:25.682Z,18.86
2018-09-22T15:37:52.954Z,18.80
2018-09-22T15:40:20.207Z,18.73
2018-09-22T15:42:47.488Z,18.53
2018-09-22T15:45:14.791Z,18.30
2018-09-22T15:47:42.073Z,18.14
2018-09-22T15:50:09.314Z,18.10
2018-09-22T15:52:36.616Z,17.97
2018-09-22T15:55:03.898Z,17.80
2018-09-22T15:57:31.152Z,17.72
2018-09-22T15:59:58.403Z,17.75
2018-09-22T16:02:25.694Z,17.71
2018-09-22T16:04:52.922Z,17.70
2018-09-22T16:07:20.213Z,17.67
2018-09-22T16:09:47.925Z,17.61
2018-09-22T16:12:17.310Z,17.49
2018-09-22T16:14:44.819Z,17.49
2018-09-22T16:17:12.146Z,17.43
2018-09-22T16:19:39.376Z,17.45
2018-09-22T16:22:06.669Z,17.53
2018-09-22T16:24:33.925Z,17.46
2018-09-22T16:27:01.244Z,17.46
2018-09-22T16:29:28.528Z,17.53
2018-09-22T16:31:55.870Z,17.54
2018-09-22T16:34:23.155Z,17.54
2018-09-22T16:36:50.391Z,17.58
2018-09-22T16:39:17.689Z,17.54
2018-09-22T16:41:45.789Z,17.55
2018-09-22T16:44:13.143Z,17.48
2018-09-22T16:46:40.496Z,17.53
2018-09-22T16:49:07.930Z,17.67
2018-09-22T16:51:35.157Z,17.64
2018-09-22T16:54:02.422Z,17.63
2018-09-22T16:56:29.647Z,17.65
2018-09-22T16:58:56.919Z,17.68
2018-09-22T17:01:24.153Z,17.66
2018-09-22T17:03:51.564Z,17.53
2018-09-22T17:06:18.947Z,17.56
2018-09-22T17:08:46.336Z,17.53
2018-09-22T17:11:13.720Z,17.56
2018-09-22T17:13:40.988Z,17.59
2018-09-22T17:16:08.425Z,17.55
2018-09-22T17:18:35.808Z,17.56
2018-09-22T17:21:03.129Z,17.60
2018-09-22T17:23:30.479Z,17.52
2018-09-22T17:25:57.879Z,17.39
2018-09-22T17:28:25.094Z,17.39
2018-09-22T17:30:52.403Z,17.43
2018-09-22T17:33:19.683Z,17.37
2018-09-22T17:35:47.033Z,17.28
2018-09-22T17:38:14.299Z,17.32
2018-09-22T17:40:41.583Z,17.19
2018-09-22T17:43:08.834Z,17.03
2018-09-22T17:45:36.223Z,17.01
2018-09-22T17:48:03.512Z,16.96
2018-09-22T17:50:30.721Z,16.88
2018-09-22T17:52:58.017Z,16.90
2018-09-22T17:55:25.265Z,16.87
2018-09-22T17:57:52.532Z,16.89
2018-09-22T18:00:19.916Z,16.79
2018-09-22T18:02:47.149Z,16.80
2018-09-22T18:05:14.427Z,16.79
2018-09-22T18:07:41.731Z,16.88
2018-09-22T18:10:09.043Z,16.88
2018-09-22T18:12:36.282Z,16.89
2018-09-22T18:15:03.667Z,16.79
2018-09-22T18:17:30.948Z,16.83
2018-09-22T18:19:58.244Z,16.72
2018-09-22T18:22:25.529Z,16.67
2018-09-22T18:24:52.825Z,16.73
2018-09-22T18:27:20.171Z,16.75
2018-09-22T18:29:47.533Z,16.67
2018-09-22T18:32:14.906Z,16.75
2018-09-22T18:34:42.193Z,16.77
2018-09-22T18:37:09.540Z,16.82
2018-09-22T18:39:36.797Z,16.65
2018-09-22T18:42:04.019Z,16.59
2018-09-22T18:44:31.270Z,16.51
2018-09-22T18:46:58.538Z,16.49
2018-09-22T18:49:25.800Z,16.54
2018-09-22T18:51:53.115Z,16.51
2018-09-22T18:54:20.414Z,16.46
2018-09-22T18:56:47.673Z,16.35
2018-09-22T18:59:14.961Z,16.26
2018-09-22T19:01:42.730Z,16.23
2018-09-22T19:04:09.959Z,16.18
2018-09-22T19:06:37.239Z,16.17
2018-09-22T19:09:06.553Z,16.22
2018-09-22T19:11:33.888Z,16.24
2018-09-22T19:14:04.431Z,16.12
2018-09-22T19:16:37.093Z,16.04
2018-09-22T19:19:10.055Z,16.00
2018-09-22T19:21:44.204Z,15.77
2018-09-22T19:24:15.056Z,15.61
2018-09-22T19:26:50.764Z,15.46
2018-09-22T19:29:25.853Z,15.62
2018-09-22T19:32:02.421Z,15.73
2018-09-22T19:34:40.591Z,15.83
2018-09-22T19:37:26.200Z,15.91
2018-09-22T19:40:59.263Z,15.83
2018-09-22T19:44:30.451Z,15.58
2018-09-22T19:48:01.703Z,15.63
2018-09-22T19:50:34.077Z,15.70
2018-09-22T19:53:01.398Z,15.75
2018-09-22T19:55:28.694Z,15.51
2018-09-22T19:57:55.936Z,15.23
2018-09-22T20:00:23.256Z,15.04
2018-09-22T20:02:50.529Z,14.96
2018-09-22T20:05:17.791Z,15.06
2018-09-22T20:07:45.167Z,15.22
2018-09-22T20:10:12.439Z,15.34
2018-09-22T20:12:39.697Z,15.23
2018-09-22T20:15:06.954Z,15.30
2018-09-22T20:17:34.282Z,15.40
2018-09-22T20:20:01.599Z,15.50
2018-09-22T20:22:28.870Z,15.51
2018-09-22T20:24:56.119Z,15.51
2018-09-22T20:27:23.407Z,15.59
2018-09-22T20:29:50.666Z,15.69
2018-09-22T20:32:17.983Z,15.75
2018-09-22T20:34:45.190Z,15.80
2018-09-22T20:37:12.551Z,15.81
2018-09-22T20:39:39.834Z,15.75
2018-09-22T20:42:07.641Z,15.65
2018-09-22T20:44:34.894Z,15.69
2018-09-22T20:47:02.314Z,15.69
2018-09-22T20:49:29.628Z,15.72
2018-09-22T20:51:57.064Z,15.58
2018-09-22T20:54:24.319Z,15.38
2018-09-22T20:56:51.681Z,15.03
2018-09-22T20:59:19.011Z,14.88
2018-09-22T21:01:46.282Z,14.97
2018-09-22T21:04:13.567Z,15.09
2018-09-22T21:06:41.208Z,15.12
2018-09-22T21:09:09.392Z,14.90
2018-09-22T21:11:36.837Z,14.96
2018-09-22T21:14:04.243Z,15.00
2018-09-22T21:16:31.453Z,15.11
2018-09-22T21:18:58.870Z,15.13
2018-09-22T21:21:26.233Z,15.01
2018-09-22T21:23:53.482Z,14.92
2018-09-22T21:26:20.797Z,14.96
2018-09-22T21:30:12.649Z,14.79
2018-09-22T21:32:39.907Z,14.41
2018-09-22T21:35:07.211Z,14.33
2018-09-22T21:37:34.436Z,14.19
2018-09-22T21:40:01.780Z,14.25
2018-09-22T21:42:29.107Z,14.26
2018-09-22T21:44:56.426Z,14.24
2018-09-22T21:47:23.695Z,14.30
2018-09-22T21:49:51.098Z,14.26
2018-09-22T21:52:18.373Z,14.19
2018-09-22T21:54:45.686Z,14.11
2018-09-22T21:57:12.822Z,14.02
2018-09-22T21:59:40.165Z,13.86
2018-09-22T22:02:07.463Z,13.79
2018-09-22T22:04:34.717Z,13.64
2018-09-22T22:07:02.022Z,13.63
2018-09-22T22:09:29.326Z,13.65
2018-09-22T22:11:56.687Z,13.66
2018-09-22T22:14:23.975Z,13.64
2018-09-22T22:16:51.229Z,13.65
2018-09-22T22:19:18.570Z,13.63
2018-09-22T22:21:45.879Z,13.57
2018-09-22T22:24:13.114Z,13.55
2018-09-22T22:26:40.386Z,13.51
2018-09-22T22:29:07.699Z,13.53
2018-09-22T22:31:34.969Z,13.53
2018-09-22T22:34:02.232Z,13.53
2018-09-22T22:36:29.542Z,13.55
2018-09-22T22:38:56.810Z,13.50
2018-09-22T22:41:24.226Z,13.53
2018-09-22T22:43:51.540Z,13.50
2018-09-22T22:46:18.828Z,13.57
2018-09-22T22:48:46.064Z,13.62
2018-09-22T22:51:13.325Z,13.65
2018-09-22T22:53:40.579Z,13.63
2018-09-22T22:56:07.819Z,13.65
2018-09-22T22:58:35.107Z,13.67
2018-09-22T23:01:02.450Z,13.65
2018-09-22T23:03:29.751Z,13.65
2018-09-22T23:05:56.970Z,13.67
2018-09-22T23:08:24.252Z,13.71
2018-09-22T23:10:51.543Z,13.73
2018-09-22T23:13:18.826Z,13.74
2018-09-22T23:15:46.066Z,13.70
2018-09-22T23:18:13.411Z,13.68
2018-09-22T23:20:40.671Z,13.72
2018-09-22T23:23:07.886Z,13.69
2018-09-22T23:25:35.124Z,13.68
2018-09-22T23:28:02.607Z,13.71
2018-09-22T23:30:29.884Z,13.63
2018-09-22T23:32:57.199Z,13.49
2018-09-22T23:35:24.455Z,13.43
2018-09-22T23:37:51.716Z,13.32
2018-09-22T23:40:19.105Z,13.27
2018-09-22T23:42:46.376Z,13.15
2018-09-22T23:45:13.672Z,13.10
2018-09-22T23:47:40.932Z,13.13
2018-09-22T23:50:08.262Z,13.12
2018-09-22T23:52:35.485Z,13.11
2018-09-22T23:55:02.830Z,13.13
2018-09-22T23:57:30.125Z,13.08
2018-09-22T23:59:57.417Z,13.06
